createdAt,value
2017-11-29T00:00:49.798Z,6.13
2017-11-29T00:03:17.254Z,6.93
2017-11-29T00:05:44.704Z,6.50
2017-11-29T00:08:12.148Z,6.40
2017-11-29T00:10:39.582Z,7.40
2017-11-29T00:13:07.012Z,5.83
2017-11-29T00:15:34.446Z,5.97
2017-11-29T00:18:01.878Z,6.03
2017-11-29T00:20:29.321Z,6.57
2017-11-29T00:22:56.778Z,6.20
2017-11-29T00:25:24.201Z,6.27
2017-11-29T00:27:52.401Z,6.47
2017-11-29T00:30:19.841Z,6.30
2017-11-29T00:32:48.046Z,7.03
2017-11-29T00:35:15.473Z,6.43
2017-11-29T00:37:42.937Z,7.37
2017-11-29T00:40:10.373Z,7.20
2017-11-29T00:42:38.596Z,5.97
2017-11-29T00:45:06.076Z,5.40
2017-11-29T00:47:33.503Z,7.00
2017-11-29T00:50:00.953Z,6.40
2017-11-29T00:52:28.392Z,5.97
2017-11-29T00:54:55.829Z,5.30
2017-11-29T00:57:24.057Z,7.00
2017-11-29T00:59:51.493Z,5.90
2017-11-29T01:02:18.928Z,6.60
2017-11-29T01:04:47.149Z,7.70
2017-11-29T01:07:14.582Z,7.90
2017-11-29T01:09:42.061Z,9.20
2017-11-29T01:12:09.497Z,7.20
2017-11-29T01:14:36.934Z,7.17
2017-11-29T01:17:04.375Z,7.33
2017-11-29T01:19:32.601Z,5.80
2017-11-29T01:22:00.038Z,5.10
2017-11-29T01:24:27.484Z,6.40
2017-11-29T01:26:54.918Z,6.77
2017-11-29T01:29:23.144Z,5.87
2017-11-29T01:31:50.580Z,6.33
2017-11-29T01:34:18.008Z,6.83
2017-11-29T01:36:46.220Z,6.67
2017-11-29T01:39:13.656Z,6.50
2017-11-29T01:41:41.097Z,6.90
2017-11-29T01:44:09.300Z,7.50
2017-11-29T01:46:36.740Z,6.53
2017-11-29T01:49:04.171Z,7.07
2017-11-29T01:51:32.373Z,7.20
2017-11-29T01:53:59.808Z,7.10
2017-11-29T01:56:28.021Z,7.63
2017-11-29T01:58:55.488Z,6.60
2017-11-29T02:01:22.929Z,6.03
2017-11-29T02:03:50.361Z,6.27
2017-11-29T02:06:26.752Z,7.17
2017-11-29T02:08:54.201Z,6.83
2017-11-29T02:11:21.884Z,7.70
2017-11-29T02:13:49.319Z,7.00
2017-11-29T02:16:16.752Z,6.40
2017-11-29T02:18:44.959Z,7.63
2017-11-29T02:21:12.391Z,6.77
2017-11-29T02:23:39.821Z,6.53
2017-11-29T02:26:07.260Z,6.37
2017-11-29T02:28:34.700Z,6.53
2017-11-29T02:31:02.158Z,6.00
2017-11-29T02:33:29.577Z,6.50
2017-11-29T02:35:57.012Z,6.37
2017-11-29T02:38:25.209Z,7.00
2017-11-29T02:41:04.575Z,6.37
2017-11-29T02:43:32.016Z,6.13
2017-11-29T02:45:59.441Z,6.77
2017-11-29T02:48:27.648Z,6.30
2017-11-29T02:50:55.084Z,5.87
2017-11-29T02:53:22.512Z,5.97
2017-11-29T02:55:50.712Z,6.30
2017-11-29T02:58:18.149Z,6.60
2017-11-29T03:00:46.350Z,5.53
2017-11-29T03:03:13.781Z,5.70
2017-11-29T03:05:41.982Z,5.57
2017-11-29T03:08:09.420Z,6.10
2017-11-29T03:10:36.853Z,5.80
2017-11-29T03:13:04.289Z,5.47
2017-11-29T03:15:31.720Z,6.03
2017-11-29T03:17:59.156Z,6.30
2017-11-29T03:20:26.591Z,5.00
2017-11-29T03:22:54.797Z,4.90
2017-11-29T03:25:22.224Z,6.07
2017-11-29T03:27:50.432Z,6.53
2017-11-29T03:30:17.866Z,6.87
2017-11-29T03:32:46.065Z,6.70
2017-11-29T03:35:13.497Z,6.70
2017-11-29T03:37:40.936Z,5.70
2017-11-29T03:40:09.127Z,4.03
2017-11-29T03:42:36.569Z,4.77
2017-11-29T03:45:04.769Z,5.20
2017-11-29T03:47:32.204Z,5.00
2017-11-29T03:50:00.404Z,6.10
2017-11-29T03:52:27.844Z,8.57
2017-11-29T03:54:55.276Z,8.70
2017-11-29T03:57:23.489Z,7.77
2017-11-29T03:59:50.932Z,7.77
2017-11-29T04:02:18.357Z,7.50
2017-11-29T04:04:45.792Z,6.30
2017-11-29T04:07:13.224Z,6.07
2017-11-29T04:09:40.660Z,6.20
2017-11-29T04:12:08.100Z,6.83
2017-11-29T04:14:36.303Z,6.13
2017-11-29T04:17:03.726Z,5.67
2017-11-29T04:19:31.942Z,5.00
2017-11-29T04:21:59.362Z,4.50
2017-11-29T04:24:27.559Z,4.80
2017-11-29T04:26:54.995Z,5.50
2017-11-29T04:29:23.209Z,6.43
2017-11-29T04:31:50.645Z,5.90
2017-11-29T04:34:18.077Z,5.67
2017-11-29T04:36:46.281Z,6.13
2017-11-29T04:39:13.733Z,5.40
2017-11-29T04:41:41.161Z,5.70
2017-11-29T04:44:09.368Z,5.33
2017-11-29T04:46:36.798Z,6.37
2017-11-29T04:49:04.232Z,4.87
2017-11-29T04:51:31.665Z,5.77
2017-11-29T04:53:59.105Z,5.37
2017-11-29T04:56:26.533Z,5.07
2017-11-29T04:58:53.972Z,5.80
2017-11-29T05:01:22.193Z,5.57
2017-11-29T05:03:49.629Z,5.87
2017-11-29T05:06:17.060Z,8.57
2017-11-29T05:08:45.880Z,4.30
2017-11-29T05:11:13.312Z,4.00
2017-11-29T05:13:40.752Z,5.40
2017-11-29T05:16:08.952Z,3.70
2017-11-29T05:18:36.436Z,2.43
2017-11-29T05:21:03.873Z,2.40
2017-11-29T05:23:31.304Z,3.50
2017-11-29T05:25:59.508Z,2.47
2017-11-29T05:28:26.949Z,2.70
2017-11-29T05:30:54.377Z,2.70
2017-11-29T05:33:22.589Z,2.50
2017-11-29T05:35:50.031Z,2.97
2017-11-29T05:38:17.473Z,2.00
2017-11-29T05:40:45.677Z,2.60
2017-11-29T05:43:13.108Z,3.20
2017-11-29T05:45:41.313Z,5.93
2017-11-29T05:48:08.749Z,5.57
2017-11-29T05:50:36.184Z,2.80
2017-11-29T05:53:04.376Z,3.03
2017-11-29T05:55:31.822Z,2.90
2017-11-29T05:58:00.025Z,2.87
2017-11-29T06:00:27.459Z,2.73
2017-11-29T06:02:54.896Z,3.50
2017-11-29T06:05:23.110Z,2.97
2017-11-29T06:07:50.538Z,3.07
2017-11-29T06:10:18.737Z,3.07
2017-11-29T06:12:46.168Z,3.30
2017-11-29T06:15:14.376Z,3.10
2017-11-29T06:17:41.800Z,3.53
2017-11-29T06:20:09.231Z,2.57
2017-11-29T06:22:36.672Z,3.40
2017-11-29T06:25:04.110Z,4.07
2017-11-29T06:27:31.541Z,3.67
2017-11-29T06:29:59.000Z,4.30
2017-11-29T06:32:26.432Z,4.70
2017-11-29T06:34:54.628Z,5.27
2017-11-29T06:37:22.073Z,5.47
2017-11-29T06:39:49.500Z,6.00
2017-11-29T06:42:16.937Z,5.20
2017-11-29T06:44:44.371Z,5.50
2017-11-29T06:47:11.808Z,5.90
2017-11-29T06:49:39.245Z,7.70
2017-11-29T06:52:07.449Z,7.40
2017-11-29T06:54:34.876Z,7.50
2017-11-29T06:57:03.081Z,7.03
2017-11-29T06:59:30.513Z,7.60
2017-11-29T07:01:57.952Z,7.40
2017-11-29T07:04:26.152Z,7.57
2017-11-29T07:06:53.593Z,6.90
2017-11-29T07:09:21.793Z,7.97
2017-11-29T07:14:40.961Z,6.43
2017-11-29T07:17:08.392Z,7.10
2017-11-29T07:19:36.588Z,6.30
2017-11-29T07:22:04.029Z,6.23
2017-11-29T07:24:32.237Z,6.10
2017-11-29T07:26:59.674Z,6.73
2017-11-29T07:29:27.103Z,6.67
2017-11-29T07:31:55.303Z,6.77
2017-11-29T07:34:22.733Z,5.80
2017-11-29T07:36:50.936Z,5.40
2017-11-29T07:39:18.368Z,4.97
2017-11-29T07:41:46.568Z,6.33
2017-11-29T07:44:14.014Z,12.80
2017-11-29T07:46:41.457Z,14.53
2017-11-29T07:49:09.656Z,16.00
2017-11-29T07:51:37.099Z,14.33
2017-11-29T07:54:04.536Z,10.83
2017-11-29T07:56:32.740Z,7.07
2017-11-29T07:59:00.176Z,5.43
2017-11-29T08:01:28.372Z,6.43
2017-11-29T08:03:55.804Z,6.93
2017-11-29T08:06:24.005Z,6.73
2017-11-29T08:08:51.444Z,6.57
2017-11-29T08:11:19.637Z,4.60
2017-11-29T08:13:47.071Z,4.40
2017-11-29T08:16:15.274Z,4.30
2017-11-29T08:18:42.712Z,4.67
2017-11-29T08:21:10.145Z,5.00
2017-11-29T08:23:38.357Z,5.90
2017-11-29T08:26:05.785Z,5.00
2017-11-29T08:28:33.984Z,3.70
2017-11-29T08:31:01.416Z,5.70
2017-11-29T08:33:29.628Z,4.73
2017-11-29T08:35:57.056Z,5.80
2017-11-29T08:38:24.493Z,5.63
2017-11-29T08:40:52.696Z,5.33
2017-11-29T08:43:20.144Z,5.60
2017-11-29T08:45:47.568Z,4.33
2017-11-29T08:48:15.008Z,3.83
2017-11-29T08:50:42.441Z,4.20
2017-11-29T08:53:09.883Z,4.37
2017-11-29T08:55:37.309Z,3.43
2017-11-29T08:58:05.521Z,3.87
2017-11-29T09:00:32.945Z,4.27
2017-11-29T09:03:01.149Z,4.10
2017-11-29T09:08:19.216Z,9.47
2017-11-29T09:10:46.648Z,6.37
2017-11-29T09:13:14.111Z,4.60
2017-11-29T09:15:41.531Z,6.10
2017-11-29T09:18:09.737Z,3.97
2017-11-29T09:20:37.181Z,3.50
2017-11-29T09:23:04.615Z,3.67
2017-11-29T09:25:32.817Z,4.00
2017-11-29T09:28:00.244Z,4.07
2017-11-29T09:30:28.450Z,4.40
2017-11-29T09:32:55.879Z,4.40
2017-11-29T09:35:24.088Z,4.90
2017-11-29T09:37:51.535Z,3.70
2017-11-29T09:40:18.969Z,4.53
2017-11-29T09:42:47.201Z,3.60
2017-11-29T09:45:14.635Z,4.20
2017-11-29T09:47:42.114Z,4.30
2017-11-29T09:50:09.556Z,16.77
2017-11-29T09:52:36.992Z,9.47
2017-11-29T09:55:04.432Z,12.63
2017-11-29T09:57:32.632Z,9.50
2017-11-29T10:00:00.064Z,4.97
2017-11-29T10:02:28.252Z,5.60
2017-11-29T10:04:55.689Z,4.27
2017-11-29T10:07:23.888Z,3.43
2017-11-29T10:09:51.326Z,3.40
2017-11-29T10:12:19.512Z,4.23
2017-11-29T10:14:47.079Z,4.80
2017-11-29T10:17:14.496Z,4.07
2017-11-29T10:19:42.709Z,3.83
2017-11-29T10:22:10.132Z,4.13
2017-11-29T10:24:38.341Z,4.27
2017-11-29T10:27:05.788Z,3.80
2017-11-29T10:29:33.226Z,4.43
2017-11-29T10:32:01.426Z,3.90
2017-11-29T10:34:28.868Z,3.53
2017-11-29T10:36:56.336Z,4.17
2017-11-29T10:39:23.763Z,3.50
2017-11-29T10:41:51.960Z,3.80
2017-11-29T10:44:19.395Z,4.13
2017-11-29T10:46:47.600Z,4.67
2017-11-29T10:49:15.056Z,3.53
2017-11-29T10:51:42.492Z,4.33
2017-11-29T10:54:09.986Z,3.97
2017-11-29T10:56:38.111Z,5.83
2017-11-29T10:59:06.318Z,4.70
2017-11-29T11:01:33.770Z,3.93
2017-11-29T11:04:01.201Z,4.30
2017-11-29T11:06:29.404Z,3.87
2017-11-29T11:08:56.842Z,4.37
2017-11-29T11:11:24.278Z,2.73
2017-11-29T11:13:52.481Z,3.40
2017-11-29T11:16:19.908Z,3.13
2017-11-29T11:18:48.125Z,3.10
2017-11-29T11:21:15.580Z,2.73
2017-11-29T11:23:43.048Z,2.83
2017-11-29T11:26:10.485Z,2.80
2017-11-29T11:28:37.925Z,2.40
2017-11-29T11:31:05.367Z,2.43
2017-11-29T11:33:33.555Z,2.50
2017-11-29T11:36:00.993Z,2.80
2017-11-29T11:38:29.188Z,2.70
2017-11-29T11:40:56.628Z,2.60
2017-11-29T11:43:24.832Z,2.53
2017-11-29T11:45:52.268Z,2.43
2017-11-29T11:48:19.700Z,3.00
2017-11-29T11:50:47.156Z,2.40
2017-11-29T11:53:14.597Z,2.90
2017-11-29T11:55:42.028Z,3.30
2017-11-29T11:58:09.462Z,2.70
2017-11-29T12:00:36.896Z,3.00
2017-11-29T12:03:05.096Z,3.23
2017-11-29T12:05:32.543Z,2.83
2017-11-29T12:07:59.971Z,2.97
2017-11-29T12:10:28.164Z,3.13
2017-11-29T12:12:55.604Z,4.30
2017-11-29T12:15:23.804Z,3.23
2017-11-29T12:17:51.255Z,2.93
2017-11-29T12:20:18.679Z,2.40
2017-11-29T12:22:46.123Z,2.80
2017-11-29T12:25:13.556Z,3.33
2017-11-29T12:27:40.989Z,3.30
2017-11-29T12:30:08.418Z,3.60
2017-11-29T12:32:36.620Z,4.37
2017-11-29T12:35:04.053Z,3.83
2017-11-29T12:37:32.260Z,3.80
2017-11-29T12:39:59.685Z,3.83
2017-11-29T12:42:27.906Z,4.03
2017-11-29T12:44:55.367Z,3.90
2017-11-29T12:47:22.801Z,3.60
2017-11-29T12:50:02.093Z,4.00
2017-11-29T12:52:30.296Z,3.90
2017-11-29T12:54:57.849Z,3.43
2017-11-29T12:57:25.290Z,3.60
2017-11-29T12:59:53.497Z,5.40
2017-11-29T13:02:20.916Z,3.83
2017-11-29T13:04:49.144Z,4.00
2017-11-29T13:07:16.588Z,3.83
2017-11-29T13:09:44.023Z,4.73
2017-11-29T13:12:11.468Z,4.77
2017-11-29T13:14:39.669Z,4.43
2017-11-29T13:17:07.088Z,4.27
2017-11-29T13:19:35.292Z,4.47
2017-11-29T13:22:02.741Z,5.30
2017-11-29T13:24:30.921Z,5.20
2017-11-29T13:26:58.359Z,5.23
2017-11-29T13:29:25.796Z,4.50
2017-11-29T13:31:54.016Z,4.73
2017-11-29T13:34:21.445Z,4.93
2017-11-29T13:36:49.638Z,5.00
2017-11-29T13:39:17.092Z,4.60
2017-11-29T13:41:44.645Z,5.17
2017-11-29T13:44:12.082Z,5.00
2017-11-29T13:46:40.280Z,4.37
2017-11-29T13:49:07.715Z,4.60
2017-11-29T13:51:35.921Z,5.40
2017-11-29T13:54:03.344Z,5.93
2017-11-29T13:56:31.540Z,5.33
2017-11-29T13:58:58.973Z,5.23
2017-11-29T14:01:27.178Z,5.90
2017-11-29T14:03:54.604Z,6.17
2017-11-29T14:06:22.805Z,5.90
2017-11-29T14:08:50.236Z,5.80
2017-11-29T14:11:18.439Z,7.50
2017-11-29T14:13:45.882Z,7.10
2017-11-29T14:16:13.311Z,7.30
2017-11-29T14:18:40.740Z,6.70
2017-11-29T14:21:08.939Z,7.33
2017-11-29T14:23:37.144Z,5.77
2017-11-29T14:26:04.579Z,6.00
2017-11-29T14:28:32.777Z,7.07
2017-11-29T14:31:00.217Z,6.30
2017-11-29T14:33:28.409Z,6.30
2017-11-29T14:35:55.848Z,4.80
2017-11-29T14:38:24.045Z,5.80
2017-11-29T14:40:51.485Z,5.60
2017-11-29T14:43:18.908Z,5.67
2017-11-29T14:45:46.344Z,5.70
2017-11-29T14:48:13.776Z,5.90
2017-11-29T14:50:41.208Z,6.50
2017-11-29T14:53:08.641Z,5.53
2017-11-29T14:55:36.844Z,6.57
2017-11-29T14:58:04.272Z,7.40
2017-11-29T15:00:32.477Z,6.47
2017-11-29T15:02:59.912Z,7.33
2017-11-29T15:05:28.117Z,6.20
2017-11-29T15:07:55.569Z,6.10
2017-11-29T15:10:23.004Z,6.53
2017-11-29T15:12:51.202Z,7.13
2017-11-29T15:15:18.644Z,5.83
2017-11-29T15:17:46.077Z,5.80
2017-11-29T15:20:14.280Z,6.50
2017-11-29T15:22:41.711Z,7.70
2017-11-29T15:25:09.908Z,6.63
2017-11-29T15:27:37.335Z,7.33
2017-11-29T15:30:05.543Z,6.07
2017-11-29T15:32:34.537Z,7.93
2017-11-29T15:35:01.972Z,6.47
2017-11-29T15:37:30.173Z,13.00
2017-11-29T15:39:57.620Z,33.60
2017-11-29T15:42:25.060Z,22.20
2017-11-29T15:44:53.255Z,8.40
2017-11-29T15:47:20.698Z,14.63
2017-11-29T15:49:48.134Z,11.47
2017-11-29T15:52:16.352Z,10.13
2017-11-29T15:54:43.784Z,7.47
2017-11-29T15:57:11.222Z,6.70
2017-11-29T15:59:39.426Z,8.90
2017-11-29T16:04:41.504Z,10.03
2017-11-29T16:07:08.941Z,7.37
2017-11-29T16:09:37.137Z,6.53
2017-11-29T16:12:04.574Z,6.20
2017-11-29T16:14:32.769Z,5.90
2017-11-29T16:17:00.205Z,7.17
2017-11-29T16:19:27.645Z,10.40
2017-11-29T16:21:55.852Z,13.07
2017-11-29T16:24:23.292Z,14.30
2017-11-29T16:26:51.492Z,7.80
2017-11-29T16:29:18.920Z,7.33
2017-11-29T16:31:46.359Z,7.70
2017-11-29T16:34:14.553Z,8.20
2017-11-29T16:36:41.987Z,9.00
2017-11-29T16:39:10.191Z,7.20
2017-11-29T16:41:37.621Z,8.13
2017-11-29T16:44:05.823Z,6.60
2017-11-29T16:46:33.250Z,6.23
2017-11-29T16:49:01.444Z,8.33
2017-11-29T16:51:28.881Z,10.97
2017-11-29T16:53:57.085Z,11.10
2017-11-29T16:56:24.524Z,10.50
2017-11-29T16:58:52.725Z,9.23
2017-11-29T17:01:20.199Z,9.10
2017-11-29T17:03:47.636Z,9.70
2017-11-29T17:06:15.063Z,9.47
2017-11-29T17:08:43.275Z,10.37
2017-11-29T17:11:10.704Z,9.70
2017-11-29T17:13:38.153Z,10.30
2017-11-29T17:16:06.353Z,10.53
2017-11-29T17:18:33.796Z,9.60
2017-11-29T17:21:01.223Z,9.10
2017-11-29T17:23:29.443Z,8.40
2017-11-29T17:25:56.864Z,7.67
2017-11-29T17:28:25.062Z,7.20
2017-11-29T17:30:52.500Z,6.67
2017-11-29T17:33:20.697Z,7.07
2017-11-29T17:35:48.133Z,6.70
2017-11-29T17:38:15.570Z,8.40
2017-11-29T17:40:43.912Z,5.37
2017-11-29T17:43:11.354Z,5.50
2017-11-29T17:45:38.779Z,6.60
2017-11-29T17:48:06.212Z,6.30
2017-11-29T17:50:34.727Z,6.40
2017-11-29T17:53:02.169Z,6.03
2017-11-29T17:55:30.366Z,6.80
2017-11-29T17:57:58.177Z,5.80
2017-11-29T18:00:26.372Z,6.30
2017-11-29T18:02:54.585Z,5.90
2017-11-29T18:05:22.028Z,5.67
2017-11-29T18:07:49.467Z,5.90
2017-11-29T18:10:17.668Z,6.20
2017-11-29T18:12:45.095Z,5.80
2017-11-29T18:15:14.241Z,4.80
2017-11-29T18:17:41.680Z,5.80
2017-11-29T18:20:09.112Z,6.40
2017-11-29T18:22:36.543Z,6.37
2017-11-29T18:25:04.758Z,6.40
2017-11-29T18:27:32.189Z,6.43
2017-11-29T18:30:00.397Z,7.27
2017-11-29T18:32:27.828Z,6.97
2017-11-29T18:34:55.268Z,6.43
2017-11-29T18:37:23.460Z,6.80
2017-11-29T18:39:50.897Z,7.20
2017-11-29T18:42:19.123Z,7.90
2017-11-29T18:44:46.566Z,6.73
2017-11-29T18:47:14.035Z,9.00
2017-11-29T18:49:41.474Z,7.90
2017-11-29T18:52:08.904Z,7.80
2017-11-29T18:54:37.116Z,8.90
2017-11-29T18:57:04.562Z,7.87
2017-11-29T18:59:32.065Z,10.33
2017-11-29T19:01:59.490Z,11.87
2017-11-29T19:04:26.933Z,9.70
2017-11-29T19:06:54.372Z,9.40
2017-11-29T19:09:21.813Z,12.63
2017-11-29T19:11:50.018Z,8.70
2017-11-29T19:14:17.447Z,8.17
2017-11-29T19:16:45.666Z,7.73
2017-11-29T19:19:13.897Z,8.37
2017-11-29T19:21:42.095Z,9.20
2017-11-29T19:24:09.547Z,8.73
2017-11-29T19:26:36.976Z,9.17
2017-11-29T19:29:05.185Z,7.87
2017-11-29T19:31:32.660Z,8.70
2017-11-29T19:34:00.107Z,7.20
2017-11-29T19:36:27.540Z,7.73
2017-11-29T19:38:54.982Z,8.10
2017-11-29T19:41:23.285Z,9.13
2017-11-29T19:43:50.714Z,11.20
2017-11-29T19:46:18.916Z,11.73
2017-11-29T19:48:46.396Z,10.23
2017-11-29T19:51:13.828Z,8.70
2017-11-29T19:53:41.270Z,7.60
2017-11-29T19:56:08.711Z,7.73
2017-11-29T19:58:36.907Z,7.67
2017-11-29T20:01:04.393Z,7.40
2017-11-29T20:03:31.828Z,7.50
2017-11-29T20:05:59.624Z,6.97
2017-11-29T20:08:27.065Z,7.60
2017-11-29T20:10:54.500Z,10.13
2017-11-29T20:13:22.448Z,9.20
2017-11-29T20:15:50.660Z,8.30
2017-11-29T20:18:18.123Z,8.07
2017-11-29T20:20:45.552Z,8.93
2017-11-29T20:23:12.997Z,14.07
2017-11-29T20:25:40.440Z,47.50
2017-11-29T20:28:09.003Z,16.53
2017-11-29T20:30:37.221Z,11.00
2017-11-29T20:33:04.661Z,11.00
2017-11-29T20:35:32.865Z,8.83
2017-11-29T20:38:00.295Z,9.57
2017-11-29T20:40:27.736Z,10.40
2017-11-29T20:42:56.052Z,9.73
2017-11-29T20:45:23.492Z,9.20
2017-11-29T20:47:50.929Z,9.23
2017-11-29T20:50:19.647Z,9.83
2017-11-29T20:52:54.911Z,9.67
2017-11-29T20:55:22.352Z,9.27
2017-11-29T20:57:49.797Z,9.47
2017-11-29T21:00:17.223Z,9.70
2017-11-29T21:02:45.437Z,10.60
2017-11-29T21:05:12.868Z,9.27
2017-11-29T21:07:40.609Z,9.57
2017-11-29T21:10:08.807Z,10.10
2017-11-29T21:12:36.256Z,10.00
2017-11-29T21:15:03.689Z,9.40
2017-11-29T21:17:31.128Z,10.70
2017-11-29T21:19:58.561Z,9.00
2017-11-29T21:22:26.020Z,10.27
2017-11-29T21:24:53.456Z,10.40
2017-11-29T21:27:20.937Z,11.30
2017-11-29T21:29:48.372Z,11.60
2017-11-29T21:32:15.813Z,9.60
2017-11-29T21:34:43.252Z,9.90
2017-11-29T21:37:11.772Z,10.67
2017-11-29T21:39:40.011Z,9.13
2017-11-29T21:42:08.236Z,8.33
2017-11-29T21:44:35.677Z,8.53
2017-11-29T21:47:03.172Z,8.50
2017-11-29T21:49:32.494Z,9.03
2017-11-29T21:51:59.983Z,7.70
2017-11-29T21:54:27.412Z,7.57
2017-11-29T21:56:55.615Z,7.47
2017-11-29T21:59:23.059Z,7.53
2017-11-29T22:01:50.500Z,7.57
2017-11-29T22:04:18.695Z,7.40
2017-11-29T22:06:46.144Z,8.10
2017-11-29T22:09:13.575Z,8.10
2017-11-29T22:11:41.817Z,7.07
2017-11-29T22:14:09.247Z,7.30
2017-11-29T22:16:37.026Z,7.70
2017-11-29T22:19:05.308Z,8.20
2017-11-29T22:21:32.748Z,7.10
2017-11-29T22:24:00.184Z,7.60
2017-11-29T22:26:28.087Z,7.83
2017-11-29T22:28:55.535Z,7.40
2017-11-29T22:31:22.992Z,7.63
2017-11-29T22:33:50.433Z,8.23
2017-11-29T22:36:17.865Z,7.63
2017-11-29T22:38:46.065Z,7.50
2017-11-29T22:41:13.492Z,7.73
2017-11-29T22:43:41.697Z,8.20
2017-11-29T22:46:09.169Z,7.23
2017-11-29T22:48:36.636Z,7.13
2017-11-29T22:51:04.063Z,9.07
2017-11-29T22:53:31.508Z,7.30
2017-11-29T22:55:58.932Z,9.00
2017-11-29T22:58:26.373Z,9.30
2017-11-29T23:00:53.804Z,8.90
2017-11-29T23:03:21.273Z,8.00
2017-11-29T23:05:48.704Z,8.90
2017-11-29T23:08:16.147Z,8.30
2017-11-29T23:10:43.628Z,8.67
2017-11-29T23:13:11.072Z,8.00
2017-11-29T23:15:38.509Z,7.87
2017-11-29T23:18:05.935Z,8.00
2017-11-29T23:20:33.992Z,8.70
2017-11-29T23:23:01.415Z,8.87
2017-11-29T23:25:28.888Z,10.07
2017-11-29T23:27:56.316Z,8.10
2017-11-29T23:30:23.750Z,7.40
2017-11-29T23:32:51.952Z,8.13
2017-11-29T23:35:19.392Z,7.17
2017-11-29T23:37:46.811Z,7.53
2017-11-29T23:40:14.340Z,9.60
2017-11-29T23:42:42.194Z,7.30
2017-11-29T23:45:09.628Z,6.90
2017-11-29T23:47:37.056Z,7.87
2017-11-29T23:50:05.264Z,7.87
2017-11-29T23:52:32.695Z,9.30
2017-11-29T23:55:00.896Z,8.80
2017-11-29T23:57:28.324Z,8.10
2017-11-29T23:59:56.538Z,9.80
